createdAt,value
2018-06-14T00:00:06.793Z,13.70
2018-06-14T00:01:06.767Z,13.66
2018-06-14T00:02:06.739Z,13.65
2018-06-14T00:03:06.714Z,13.60
2018-06-14T00:04:06.695Z,13.58
2018-06-14T00:05:06.663Z,13.57
2018-06-14T00:06:06.645Z,13.58
2018-06-14T00:07:06.611Z,13.48
2018-06-14T00:08:06.600Z,13.55
2018-06-14T00:09:06.559Z,13.55
2018-06-14T00:10:06.550Z,13.60
2018-06-14T00:11:06.512Z,13.60
2018-06-14T00:12:06.489Z,13.58
2018-06-14T00:13:06.469Z,13.54
2018-06-14T00:14:06.447Z,13.57
2018-06-14T00:15:06.419Z,13.63
2018-06-14T00:16:06.393Z,13.57
2018-06-14T00:17:06.369Z,13.54
2018-06-14T00:18:06.338Z,13.60
2018-06-14T00:19:06.316Z,13.55
2018-06-14T00:20:06.288Z,13.55
2018-06-14T00:21:06.320Z,13.57
2018-06-14T00:22:06.243Z,13.54
2018-06-14T00:23:06.227Z,13.48
2018-06-14T00:24:06.187Z,13.53
2018-06-14T00:25:06.164Z,13.44
2018-06-14T00:26:06.145Z,13.47
2018-06-14T00:27:06.119Z,13.50
2018-06-14T00:28:06.087Z,13.50
2018-06-14T00:29:06.072Z,13.51
2018-06-14T00:30:06.068Z,13.47
2018-06-14T00:31:06.015Z,13.44
2018-06-14T00:32:05.988Z,13.50
2018-06-14T00:33:05.969Z,13.51
2018-06-14T00:34:05.935Z,13.58
2018-06-14T00:35:05.916Z,13.50
2018-06-14T00:36:05.890Z,13.55
2018-06-14T00:37:05.860Z,13.54
2018-06-14T00:38:05.838Z,13.45
2018-06-14T00:39:05.807Z,13.51
2018-06-14T00:40:05.805Z,13.42
2018-06-14T00:41:05.762Z,13.47
2018-06-14T00:42:05.737Z,13.54
2018-06-14T00:43:05.714Z,13.44
2018-06-14T00:44:05.691Z,13.45
2018-06-14T00:45:05.659Z,13.50
2018-06-14T00:46:05.652Z,13.50
2018-06-14T00:47:05.614Z,13.45
2018-06-14T00:48:05.581Z,13.44
2018-06-14T00:49:05.561Z,13.45
2018-06-14T00:50:05.530Z,13.39
2018-06-14T00:51:05.511Z,13.45
2018-06-14T00:52:05.490Z,13.42
2018-06-14T00:53:05.456Z,13.44
2018-06-14T00:54:05.442Z,13.40
2018-06-14T00:55:05.414Z,13.45
2018-06-14T00:56:05.378Z,13.39
2018-06-14T00:57:05.371Z,13.39
2018-06-14T00:58:05.329Z,13.27
2018-06-14T00:59:05.304Z,13.40
2018-06-14T01:00:05.279Z,13.31
2018-06-14T01:01:05.256Z,13.29
2018-06-14T01:02:05.254Z,13.32
2018-06-14T01:03:05.211Z,13.35
2018-06-14T01:04:05.185Z,13.42
2018-06-14T01:05:05.156Z,13.42
2018-06-14T01:06:05.128Z,13.44
2018-06-14T01:07:05.110Z,13.45
2018-06-14T01:08:05.075Z,13.35
2018-06-14T01:09:05.059Z,13.42
2018-06-14T01:10:05.025Z,13.28
2018-06-14T01:11:05.006Z,13.42
2018-06-14T01:12:04.978Z,13.40
2018-06-14T01:13:04.957Z,13.28
2018-06-14T01:14:04.926Z,13.29
2018-06-14T01:15:04.907Z,13.35
2018-06-14T01:16:04.884Z,13.29
2018-06-14T01:17:04.857Z,13.35
2018-06-14T01:18:04.830Z,13.29
2018-06-14T01:19:04.808Z,13.28
2018-06-14T01:20:04.778Z,13.37
2018-06-14T01:21:04.757Z,13.28
2018-06-14T01:22:04.722Z,13.27
2018-06-14T01:23:04.698Z,13.31
2018-06-14T01:24:04.682Z,13.28
2018-06-14T01:25:04.652Z,13.25
2018-06-14T01:26:04.624Z,13.16
2018-06-14T01:27:04.598Z,13.19
2018-06-14T01:28:04.575Z,13.17
2018-06-14T01:29:04.553Z,13.25
2018-06-14T01:30:04.518Z,13.20
2018-06-14T01:31:04.496Z,13.14
2018-06-14T01:32:04.476Z,13.25
2018-06-14T01:33:04.454Z,13.17
2018-06-14T01:34:04.426Z,13.11
2018-06-14T01:35:04.395Z,13.19
2018-06-14T01:36:04.375Z,13.19
2018-06-14T01:37:04.349Z,13.16
2018-06-14T01:38:04.321Z,13.21
2018-06-14T01:39:04.305Z,13.16
2018-06-14T01:40:04.266Z,13.16
2018-06-14T01:41:04.243Z,13.02
2018-06-14T01:42:04.223Z,13.09
2018-06-14T01:43:04.189Z,13.09
2018-06-14T01:44:04.175Z,13.06
2018-06-14T01:45:04.147Z,13.06
2018-06-14T01:46:04.116Z,13.01
2018-06-14T01:47:04.090Z,13.02
2018-06-14T01:48:04.065Z,13.03
2018-06-14T01:49:04.044Z,12.98
2018-06-14T01:50:04.024Z,12.94
2018-06-14T01:51:03.990Z,13.01
2018-06-14T01:52:03.968Z,12.99
2018-06-14T01:53:03.943Z,13.01
2018-06-14T01:54:03.919Z,13.03
2018-06-14T01:55:03.883Z,12.98
2018-06-14T01:56:03.868Z,12.95
2018-06-14T01:57:03.833Z,12.94
2018-06-14T01:58:03.821Z,12.89
2018-06-14T01:59:03.793Z,12.95
2018-06-14T02:00:03.757Z,12.89
2018-06-14T02:01:03.741Z,12.88
2018-06-14T02:02:03.708Z,12.94
2018-06-14T02:03:03.684Z,12.88
2018-06-14T02:04:03.667Z,12.89
2018-06-14T02:05:03.641Z,12.84
2018-06-14T02:06:03.609Z,12.84
2018-06-14T02:07:03.588Z,12.89
2018-06-14T02:08:03.566Z,12.92
2018-06-14T02:09:03.544Z,12.88
2018-06-14T02:10:03.513Z,12.80
2018-06-14T02:11:03.487Z,12.83
2018-06-14T02:12:03.452Z,12.83
2018-06-14T02:13:03.443Z,12.89
2018-06-14T02:14:03.401Z,12.88
2018-06-14T02:15:03.381Z,12.86
2018-06-14T02:16:03.354Z,12.91
2018-06-14T02:17:03.332Z,12.84
2018-06-14T02:18:03.304Z,12.81
2018-06-14T02:19:03.275Z,12.83
2018-06-14T02:20:03.280Z,12.77
2018-06-14T02:21:03.226Z,12.70
2018-06-14T02:22:03.203Z,12.70
2018-06-14T02:23:03.176Z,12.77
2018-06-14T02:24:03.149Z,12.73
2018-06-14T02:25:03.125Z,12.81
2018-06-14T02:26:03.104Z,12.74
2018-06-14T02:27:03.074Z,12.78
2018-06-14T02:28:03.058Z,12.78
2018-06-14T02:29:03.031Z,12.74
2018-06-14T02:30:02.999Z,12.74
2018-06-14T02:31:02.972Z,12.84
2018-06-14T02:32:02.952Z,12.73
2018-06-14T02:33:02.941Z,12.74
2018-06-14T02:34:02.922Z,12.71
2018-06-14T02:35:02.876Z,12.77
2018-06-14T02:36:02.841Z,12.73
2018-06-14T02:37:02.826Z,12.80
2018-06-14T02:38:02.797Z,12.77
2018-06-14T02:39:02.770Z,12.66
2018-06-14T02:40:02.749Z,12.74
2018-06-14T02:41:02.721Z,12.63
2018-06-14T02:42:02.692Z,12.74
2018-06-14T02:43:02.674Z,12.76
2018-06-14T02:44:02.643Z,12.76
2018-06-14T02:45:02.620Z,12.69
2018-06-14T02:46:02.595Z,12.77
2018-06-14T02:47:02.564Z,12.74
2018-06-14T02:48:02.547Z,12.65
2018-06-14T02:49:02.516Z,12.73
2018-06-14T02:50:02.490Z,12.76
2018-06-14T02:51:02.461Z,12.63
2018-06-14T02:52:02.436Z,12.65
2018-06-14T02:53:02.415Z,12.62
2018-06-14T02:54:02.393Z,12.69
2018-06-14T02:55:02.371Z,12.63
2018-06-14T02:56:02.337Z,12.76
2018-06-14T02:57:02.319Z,12.80
2018-06-14T02:58:02.289Z,12.69
2018-06-14T02:59:02.256Z,12.73
2018-06-14T03:00:02.288Z,12.74
2018-06-14T03:01:02.215Z,12.73
2018-06-14T03:02:02.242Z,12.76
2018-06-14T03:03:02.166Z,12.65
2018-06-14T03:04:02.135Z,12.77
2018-06-14T03:05:02.108Z,12.71
2018-06-14T03:06:02.085Z,12.73
2018-06-14T03:07:02.062Z,12.71
2018-06-14T03:08:02.033Z,12.71
2018-06-14T03:09:02.006Z,12.70
2018-06-14T03:10:01.990Z,12.73
2018-06-14T03:11:01.957Z,12.80
2018-06-14T03:12:01.939Z,12.83
2018-06-14T03:13:01.907Z,12.86
2018-06-14T03:14:01.893Z,12.89
2018-06-14T03:15:01.860Z,12.83
2018-06-14T03:16:01.838Z,12.84
2018-06-14T03:17:01.804Z,12.78
2018-06-14T03:18:01.786Z,12.84
2018-06-14T03:19:01.766Z,12.86
2018-06-14T03:20:01.739Z,12.86
2018-06-14T03:21:01.705Z,12.80
2018-06-14T03:22:01.676Z,12.80
2018-06-14T03:23:01.650Z,12.83
2018-06-14T03:24:01.625Z,12.84
2018-06-14T03:25:01.601Z,12.88
2018-06-14T03:26:01.571Z,12.91
2018-06-14T03:27:01.556Z,12.89
2018-06-14T03:28:01.520Z,12.91
2018-06-14T03:29:01.519Z,12.91
2018-06-14T03:30:01.468Z,13.03
2018-06-14T03:31:01.451Z,12.98
2018-06-14T03:32:01.433Z,12.99
2018-06-14T03:33:01.398Z,12.98
2018-06-14T03:34:01.374Z,12.99
2018-06-14T03:35:01.351Z,12.99
2018-06-14T03:36:01.317Z,13.06
2018-06-14T03:37:01.300Z,12.99
2018-06-14T03:38:01.264Z,12.96
2018-06-14T03:39:01.249Z,12.94
2018-06-14T03:40:01.220Z,12.86
2018-06-14T03:41:01.198Z,12.81
2018-06-14T03:42:01.163Z,12.81
2018-06-14T03:43:01.137Z,12.89
2018-06-14T03:44:01.121Z,12.94
2018-06-14T03:45:01.089Z,12.89
2018-06-14T03:46:01.065Z,12.91
2018-06-14T03:47:01.037Z,12.88
2018-06-14T03:48:01.033Z,12.92
2018-06-14T03:49:00.996Z,12.99
2018-06-14T03:50:00.960Z,12.95
2018-06-14T03:51:00.942Z,12.92
2018-06-14T03:52:00.979Z,12.96
2018-06-14T03:53:00.885Z,13.01
2018-06-14T03:54:00.869Z,12.98
2018-06-14T03:55:00.832Z,12.98
2018-06-14T03:56:00.813Z,13.02
2018-06-14T03:57:00.789Z,13.02
2018-06-14T03:58:00.767Z,13.06
2018-06-14T03:59:00.740Z,13.02
2018-06-14T04:00:00.718Z,13.11
2018-06-14T04:01:00.691Z,13.07
2018-06-14T04:02:00.656Z,13.07
2018-06-14T04:03:00.630Z,13.03
2018-06-14T04:04:00.671Z,13.20
2018-06-14T04:05:00.584Z,13.10
2018-06-14T04:06:00.564Z,13.17
2018-06-14T04:07:00.540Z,13.16
2018-06-14T04:08:00.507Z,13.24
2018-06-14T04:09:00.499Z,13.28
2018-06-14T04:10:00.458Z,13.17
2018-06-14T04:11:00.436Z,13.17
2018-06-14T04:12:00.408Z,13.14
2018-06-14T04:13:00.381Z,13.21
2018-06-14T04:14:00.351Z,13.29
2018-06-14T04:15:00.327Z,13.28
2018-06-14T04:16:00.310Z,13.28
2018-06-14T04:17:00.283Z,13.28
2018-06-14T04:18:00.260Z,13.36
2018-06-14T04:19:00.237Z,13.31
2018-06-14T04:20:00.208Z,13.35
2018-06-14T04:21:00.186Z,13.27
2018-06-14T04:22:00.151Z,13.32
2018-06-14T04:23:00.131Z,13.39
2018-06-14T04:24:00.105Z,13.40
2018-06-14T04:25:00.076Z,13.39
2018-06-14T04:26:00.060Z,13.44
2018-06-14T04:27:00.028Z,13.32
2018-06-14T04:28:00.012Z,13.39
2018-06-14T04:28:59.980Z,13.37
2018-06-14T04:29:59.952Z,13.44
2018-06-14T04:30:59.932Z,13.39
2018-06-14T04:31:59.900Z,13.44
2018-06-14T04:32:59.879Z,13.39
2018-06-14T04:33:59.847Z,13.45
2018-06-14T04:34:59.828Z,13.54
2018-06-14T04:35:59.807Z,13.55
2018-06-14T04:36:59.773Z,13.44
2018-06-14T04:37:59.754Z,13.60
2018-06-14T04:38:59.726Z,13.65
2018-06-14T04:39:59.704Z,13.60
2018-06-14T04:40:59.681Z,13.72
2018-06-14T04:41:59.654Z,13.68
2018-06-14T04:42:59.636Z,13.76
2018-06-14T04:43:59.608Z,13.75
2018-06-14T04:44:59.580Z,13.76
2018-06-14T04:45:59.546Z,13.81
2018-06-14T04:46:59.522Z,13.86
2018-06-14T04:47:59.504Z,13.90
2018-06-14T04:48:59.472Z,13.91
2018-06-14T04:49:59.449Z,13.83
2018-06-14T04:50:59.423Z,13.78
2018-06-14T04:51:59.405Z,13.88
2018-06-14T04:52:59.373Z,13.94
2018-06-14T04:53:59.351Z,13.93
2018-06-14T04:54:59.328Z,13.94
2018-06-14T04:55:59.297Z,13.95
2018-06-14T04:56:59.287Z,14.03
2018-06-14T04:57:59.248Z,14.08
2018-06-14T04:58:59.227Z,14.03
2018-06-14T04:59:59.205Z,14.11
2018-06-14T05:00:59.177Z,14.05
2018-06-14T05:01:59.153Z,14.13
2018-06-14T05:02:59.130Z,14.24
2018-06-14T05:03:59.096Z,14.26
2018-06-14T05:04:59.099Z,14.34
2018-06-14T05:05:59.042Z,14.31
2018-06-14T05:06:59.028Z,14.33
2018-06-14T05:07:59.001Z,14.34
2018-06-14T05:08:58.969Z,14.44
2018-06-14T05:09:58.953Z,14.42
2018-06-14T05:10:58.927Z,14.41
2018-06-14T05:11:58.900Z,14.45
2018-06-14T05:12:58.879Z,14.39
2018-06-14T05:13:58.848Z,14.49
2018-06-14T05:14:58.825Z,14.52
2018-06-14T05:15:58.793Z,14.48
2018-06-14T05:16:58.781Z,14.60
2018-06-14T05:17:58.776Z,14.66
2018-06-14T05:18:58.720Z,14.53
2018-06-14T05:19:58.704Z,14.64
2018-06-14T05:20:58.675Z,14.64
2018-06-14T05:21:58.646Z,14.59
2018-06-14T05:22:58.623Z,14.60
2018-06-14T05:23:58.605Z,14.57
2018-06-14T05:24:58.571Z,14.63
2018-06-14T05:25:58.544Z,14.56
2018-06-14T05:26:58.548Z,14.61
2018-06-14T05:27:58.501Z,14.61
2018-06-14T05:28:58.476Z,14.56
2018-06-14T05:29:58.454Z,14.56
2018-06-14T05:30:58.420Z,14.64
2018-06-14T05:31:58.404Z,14.67
2018-06-14T05:32:58.378Z,14.64
2018-06-14T05:33:58.349Z,14.71
2018-06-14T05:34:58.329Z,14.69
2018-06-14T05:35:58.297Z,14.75
2018-06-14T05:36:58.277Z,14.79
2018-06-14T05:37:58.252Z,14.82
2018-06-14T05:38:58.230Z,14.93
2018-06-14T05:39:58.207Z,14.89
2018-06-14T05:40:58.173Z,14.93
2018-06-14T05:41:58.154Z,14.93
2018-06-14T05:42:58.136Z,14.93
2018-06-14T05:43:58.097Z,14.95
2018-06-14T05:44:58.083Z,14.93
2018-06-14T05:45:58.051Z,15.01
2018-06-14T05:46:58.033Z,15.01
2018-06-14T05:47:58.005Z,15.08
2018-06-14T05:48:57.977Z,15.12
2018-06-14T05:49:57.962Z,15.13
2018-06-14T05:50:57.934Z,15.16
2018-06-14T05:51:57.902Z,15.16
2018-06-14T05:52:57.889Z,15.12
2018-06-14T05:53:57.853Z,15.25
2018-06-14T05:54:57.835Z,15.25
2018-06-14T05:55:57.807Z,15.20
2018-06-14T05:56:57.787Z,15.23
2018-06-14T05:57:57.749Z,15.34
2018-06-14T05:58:57.726Z,15.41
2018-06-14T05:59:57.711Z,15.38
2018-06-14T06:00:57.678Z,15.37
2018-06-14T06:01:57.666Z,15.35
2018-06-14T06:02:57.629Z,15.40
2018-06-14T06:03:57.617Z,15.41
2018-06-14T06:04:57.587Z,15.43
2018-06-14T06:05:57.567Z,15.53
2018-06-14T06:06:57.541Z,15.52
2018-06-14T06:07:57.508Z,15.53
2018-06-14T06:08:57.493Z,15.49
2018-06-14T06:09:57.457Z,15.53
2018-06-14T06:10:57.435Z,15.59
2018-06-14T06:11:57.461Z,15.53
2018-06-14T06:12:57.414Z,15.63
2018-06-14T06:13:57.368Z,15.63
2018-06-14T06:14:57.342Z,15.63
2018-06-14T06:15:57.310Z,15.68
2018-06-14T06:16:57.296Z,15.75
2018-06-14T06:17:57.278Z,15.71
2018-06-14T06:18:57.239Z,15.78
2018-06-14T06:19:57.211Z,15.71
2018-06-14T06:20:57.196Z,15.78
2018-06-14T06:21:57.168Z,15.77
2018-06-14T06:22:57.137Z,15.81
2018-06-14T06:23:57.121Z,15.78
2018-06-14T06:24:57.120Z,15.95
2018-06-14T06:25:57.069Z,15.92
2018-06-14T06:26:57.048Z,15.98
2018-06-14T06:27:57.028Z,16.02
2018-06-14T06:28:56.999Z,16.11
2018-06-14T06:29:56.971Z,16.07
2018-06-14T06:30:56.941Z,16.18
2018-06-14T06:31:56.925Z,16.18
2018-06-14T06:32:56.898Z,16.27
2018-06-14T06:33:56.870Z,16.22
2018-06-14T06:34:56.848Z,16.22
2018-06-14T06:35:56.828Z,16.26
2018-06-14T06:36:56.802Z,16.26
2018-06-14T06:37:56.774Z,16.32
2018-06-14T06:38:56.759Z,16.40
2018-06-14T06:39:56.722Z,16.48
2018-06-14T06:40:56.701Z,16.48
2018-06-14T06:41:56.678Z,16.48
2018-06-14T06:42:56.649Z,16.51
2018-06-14T06:43:56.634Z,16.55
2018-06-14T06:44:56.659Z,16.57
2018-06-14T06:45:56.579Z,16.49
2018-06-14T06:46:56.584Z,16.58
2018-06-14T06:47:56.530Z,16.65
2018-06-14T06:48:56.507Z,16.81
2018-06-14T06:49:56.486Z,16.73
2018-06-14T06:50:56.460Z,16.77
2018-06-14T06:51:56.439Z,16.81
2018-06-14T06:52:56.413Z,16.87
2018-06-14T06:53:56.393Z,16.87
2018-06-14T06:54:56.373Z,16.80
2018-06-14T06:55:56.338Z,16.87
2018-06-14T06:56:56.315Z,16.87
2018-06-14T06:57:56.291Z,16.94
2018-06-14T06:58:56.284Z,16.88
2018-06-14T06:59:56.249Z,16.99
2018-06-14T07:00:56.222Z,16.91
2018-06-14T07:01:56.201Z,17.07
2018-06-14T07:02:56.175Z,17.02
2018-06-14T07:03:56.142Z,17.07
2018-06-14T07:04:56.121Z,17.12
2018-06-14T07:05:56.183Z,17.13
2018-06-14T07:06:56.069Z,17.05
2018-06-14T07:07:56.047Z,17.13
2018-06-14T07:08:56.029Z,17.17
2018-06-14T07:09:56.002Z,17.25
2018-06-14T07:10:55.983Z,17.30
2018-06-14T07:11:56.005Z,17.42
2018-06-14T07:12:55.931Z,17.42
2018-06-14T07:13:55.908Z,17.49
2018-06-14T07:14:55.889Z,17.42
2018-06-14T07:15:55.853Z,17.52
2018-06-14T07:16:55.832Z,17.46
2018-06-14T07:17:55.812Z,17.50
2018-06-14T07:18:55.783Z,17.58
2018-06-14T07:19:55.759Z,17.58
2018-06-14T07:20:55.737Z,17.54
2018-06-14T07:21:55.791Z,17.50
2018-06-14T07:22:55.691Z,17.62
2018-06-14T07:23:55.671Z,17.73
2018-06-14T07:24:55.644Z,17.66
2018-06-14T07:25:55.626Z,17.71
2018-06-14T07:26:55.592Z,17.79
2018-06-14T07:27:55.571Z,17.77
2018-06-14T07:28:55.549Z,17.76
2018-06-14T07:29:55.517Z,17.76
2018-06-14T07:30:55.496Z,17.74
2018-06-14T07:31:55.481Z,17.80
2018-06-14T07:32:55.452Z,17.79
2018-06-14T07:33:55.425Z,17.88
2018-06-14T07:34:55.413Z,17.86
2018-06-14T07:35:55.375Z,17.88
2018-06-14T07:36:55.353Z,17.88
2018-06-14T07:37:55.332Z,17.87
2018-06-14T07:38:55.304Z,17.94
2018-06-14T07:39:55.282Z,17.96
2018-06-14T07:40:56.051Z,17.99
2018-06-14T07:41:55.230Z,17.96
2018-06-14T07:42:55.252Z,17.96
2018-06-14T07:43:55.186Z,17.95
2018-06-14T07:44:55.160Z,17.92
2018-06-14T07:45:55.139Z,17.96
2018-06-14T07:46:55.115Z,17.98
2018-06-14T07:47:55.095Z,17.92
2018-06-14T07:48:55.068Z,17.98
2018-06-14T07:49:55.045Z,18.03
2018-06-14T07:50:55.022Z,18.01
2018-06-14T07:51:54.995Z,18.08
2018-06-14T07:52:54.980Z,18.10
2018-06-14T07:53:54.946Z,18.05
2018-06-14T07:54:54.929Z,18.03
2018-06-14T07:55:54.908Z,18.05
2018-06-14T07:56:54.873Z,18.13
2018-06-14T07:57:54.858Z,18.13
2018-06-14T07:58:54.834Z,18.11
2018-06-14T07:59:54.808Z,18.21
2018-06-14T08:00:54.812Z,18.23
2018-06-14T08:01:54.764Z,18.27
2018-06-14T08:02:54.736Z,18.29
2018-06-14T08:03:54.710Z,18.35
2018-06-14T08:04:54.684Z,18.24
2018-06-14T08:05:54.670Z,18.38
2018-06-14T08:06:54.642Z,18.36
2018-06-14T08:07:54.618Z,18.44
2018-06-14T08:08:54.601Z,18.50
2018-06-14T08:09:54.568Z,18.44
2018-06-14T08:10:54.544Z,18.50
2018-06-14T08:11:54.518Z,18.56
2018-06-14T08:12:54.504Z,18.59
2018-06-14T08:13:54.483Z,18.56
2018-06-14T08:14:54.452Z,18.63
2018-06-14T08:15:54.430Z,18.63
2018-06-14T08:16:54.404Z,18.69
2018-06-14T08:17:54.378Z,18.71
2018-06-14T08:18:54.355Z,18.74
2018-06-14T08:19:54.333Z,18.86
2018-06-14T08:20:54.317Z,18.84
2018-06-14T08:21:54.292Z,18.86
2018-06-14T08:22:54.264Z,18.84
2018-06-14T08:23:54.238Z,19.05
2018-06-14T08:24:54.226Z,18.99
2018-06-14T08:25:54.194Z,19.00
2018-06-14T08:26:54.170Z,19.00
2018-06-14T08:27:54.149Z,19.07
2018-06-14T08:28:54.125Z,19.07
2018-06-14T08:29:54.098Z,19.16
2018-06-14T08:30:54.076Z,19.16
2018-06-14T08:31:54.057Z,19.19
2018-06-14T08:32:54.033Z,19.17
2018-06-14T08:33:54.000Z,19.19
2018-06-14T08:34:53.983Z,19.15
2018-06-14T08:35:53.957Z,19.12
2018-06-14T08:36:53.932Z,19.12
2018-06-14T08:37:53.929Z,18.97
2018-06-14T08:38:53.888Z,18.99
2018-06-14T08:39:53.867Z,18.93
2018-06-14T08:40:53.849Z,18.87
2018-06-14T08:41:53.817Z,18.99
2018-06-14T08:42:53.794Z,18.99
2018-06-14T08:43:53.768Z,18.93
2018-06-14T08:44:53.803Z,19.00
2018-06-14T08:45:53.721Z,18.97
2018-06-14T08:46:53.701Z,19.00
2018-06-14T08:47:53.683Z,19.12
2018-06-14T08:48:53.650Z,19.09
2018-06-14T08:49:53.631Z,19.10
2018-06-14T08:50:53.610Z,19.17
2018-06-14T08:51:53.591Z,18.99
2018-06-14T08:52:53.567Z,19.20
2018-06-14T08:53:53.534Z,19.06
2018-06-14T08:54:53.517Z,19.15
2018-06-14T08:55:53.490Z,19.17
2018-06-14T08:56:53.473Z,19.16
2018-06-14T08:57:53.452Z,19.24
2018-06-14T08:58:53.423Z,19.30
2018-06-14T08:59:53.403Z,19.35
2018-06-14T09:00:53.373Z,19.42
2018-06-14T09:01:53.363Z,19.53
2018-06-14T09:02:53.328Z,19.53
2018-06-14T09:03:53.316Z,19.63
2018-06-14T09:04:53.296Z,19.65
2018-06-14T09:05:53.262Z,19.61
2018-06-14T09:06:53.239Z,19.61
2018-06-14T09:07:53.212Z,19.67
2018-06-14T09:08:53.187Z,19.71
2018-06-14T09:09:53.171Z,19.71
2018-06-14T09:10:53.142Z,19.87
2018-06-14T09:11:53.125Z,20.04
2018-06-14T09:12:54.075Z,19.97
2018-06-14T09:13:53.072Z,20.07
2018-06-14T09:14:53.054Z,20.05
2018-06-14T09:15:53.031Z,20.04
2018-06-14T09:16:53.010Z,20.00
2018-06-14T09:17:52.983Z,20.07
2018-06-14T09:18:52.956Z,20.12
2018-06-14T09:19:52.935Z,20.18
2018-06-14T09:20:52.910Z,20.30
2018-06-14T09:21:52.913Z,20.42
2018-06-14T09:22:52.866Z,20.37
2018-06-14T09:23:52.846Z,20.58
2018-06-14T09:24:52.878Z,20.66
2018-06-14T09:25:52.794Z,20.81
2018-06-14T09:26:52.778Z,20.81
2018-06-14T09:27:52.757Z,20.71
2018-06-14T09:28:52.728Z,20.66
2018-06-14T09:29:52.763Z,20.74
2018-06-14T09:30:52.681Z,20.58
2018-06-14T09:31:52.668Z,20.48
2018-06-14T09:32:52.637Z,20.48
2018-06-14T09:33:52.621Z,20.60
2018-06-14T09:34:52.598Z,20.67
2018-06-14T09:35:52.613Z,20.90
2018-06-14T09:36:52.554Z,20.88
2018-06-14T09:37:52.523Z,20.68
2018-06-14T09:38:52.514Z,20.71
2018-06-14T09:39:52.487Z,20.78
2018-06-14T09:40:52.462Z,20.75
2018-06-14T09:41:52.436Z,20.74
2018-06-14T09:42:52.427Z,20.74
2018-06-14T09:43:52.396Z,20.74
2018-06-14T09:44:52.375Z,20.76
2018-06-14T09:45:52.352Z,20.86
2018-06-14T09:46:52.331Z,20.85
2018-06-14T09:47:52.306Z,21.04
2018-06-14T09:48:52.287Z,21.03
2018-06-14T09:49:52.254Z,21.08
2018-06-14T09:50:52.238Z,21.09
2018-06-14T09:51:52.213Z,21.15
2018-06-14T09:52:52.195Z,21.15
2018-06-14T09:53:52.167Z,21.25
2018-06-14T09:54:52.146Z,21.25
2018-06-14T09:55:52.126Z,21.49
2018-06-14T09:56:52.103Z,21.48
2018-06-14T09:57:52.082Z,21.48
2018-06-14T09:58:52.060Z,21.41
2018-06-14T09:59:52.038Z,21.34
2018-06-14T10:00:52.017Z,21.19
2018-06-14T10:01:51.996Z,21.16
2018-06-14T10:02:51.974Z,21.18
2018-06-14T10:03:51.948Z,21.16
2018-06-14T10:04:51.929Z,21.09
2018-06-14T10:05:51.902Z,21.11
2018-06-14T10:06:51.897Z,21.00
2018-06-14T10:07:51.863Z,21.16
2018-06-14T10:08:51.845Z,21.19
2018-06-14T10:09:51.826Z,21.23
2018-06-14T10:10:51.792Z,21.43
2018-06-14T10:11:51.778Z,21.45
2018-06-14T10:12:51.764Z,21.48
2018-06-14T10:13:51.751Z,21.66
2018-06-14T10:14:51.712Z,21.71
2018-06-14T10:15:51.681Z,21.66
2018-06-14T10:16:51.663Z,21.62
2018-06-14T10:17:51.647Z,21.62
2018-06-14T10:18:51.638Z,21.64
2018-06-14T10:19:51.601Z,21.64
2018-06-14T10:20:51.587Z,21.76
2018-06-14T10:21:51.592Z,21.77
2018-06-14T10:22:51.534Z,21.71
2018-06-14T10:23:51.511Z,21.86
2018-06-14T10:24:51.486Z,21.82
2018-06-14T10:25:51.474Z,21.82
2018-06-14T10:26:51.445Z,21.61
2018-06-14T10:27:51.427Z,21.71
2018-06-14T10:28:51.404Z,21.62
2018-06-14T10:29:51.385Z,21.59
2018-06-14T10:30:51.362Z,21.71
2018-06-14T10:31:51.338Z,21.58
2018-06-14T10:32:51.320Z,21.77
2018-06-14T10:33:51.295Z,21.96
2018-06-14T10:34:51.268Z,22.05
2018-06-14T10:35:51.258Z,22.00
2018-06-14T10:36:51.225Z,21.96
2018-06-14T10:37:51.217Z,21.96
2018-06-14T10:38:51.192Z,21.70
2018-06-14T10:39:51.164Z,21.67
2018-06-14T10:40:51.150Z,21.71
2018-06-14T10:41:51.118Z,21.62
2018-06-14T10:42:51.097Z,21.55
2018-06-14T10:43:51.083Z,21.70
2018-06-14T10:44:51.053Z,21.73
2018-06-14T10:45:51.042Z,21.68
2018-06-14T10:46:51.022Z,21.71
2018-06-14T10:47:50.990Z,21.78
2018-06-14T10:48:50.998Z,21.83
2018-06-14T10:49:50.955Z,21.83
2018-06-14T10:50:50.938Z,21.96
2018-06-14T10:51:50.934Z,22.12
2018-06-14T10:52:50.890Z,22.23
2018-06-14T10:53:50.858Z,22.27
2018-06-14T10:54:50.844Z,22.31
2018-06-14T10:55:50.819Z,22.41
2018-06-14T10:56:50.801Z,22.33
2018-06-14T10:57:50.782Z,22.33
2018-06-14T10:58:50.762Z,22.26
2018-06-14T10:59:50.733Z,22.31
2018-06-14T11:00:50.713Z,22.36
2018-06-14T11:01:50.694Z,22.33
2018-06-14T11:02:50.668Z,22.20
2018-06-14T11:03:50.654Z,22.00
2018-06-14T11:04:50.630Z,21.82
2018-06-14T11:05:50.616Z,21.86
2018-06-14T11:06:50.583Z,21.76
2018-06-14T11:07:50.565Z,21.59
2018-06-14T11:08:50.545Z,21.59
2018-06-14T11:09:50.519Z,21.64
2018-06-14T11:10:50.500Z,21.53
2018-06-14T11:11:50.479Z,21.43
2018-06-14T11:12:50.462Z,21.53
2018-06-14T11:13:50.431Z,21.66
2018-06-14T11:14:50.419Z,21.64
2018-06-14T11:15:50.390Z,21.62
2018-06-14T11:16:50.375Z,21.59
2018-06-14T11:17:50.348Z,21.76
2018-06-14T11:18:50.339Z,21.93
2018-06-14T11:19:50.310Z,22.02
2018-06-14T11:20:50.285Z,22.16
2018-06-14T11:21:50.262Z,22.31
2018-06-14T11:22:50.243Z,22.51
2018-06-14T11:23:50.217Z,22.63
2018-06-14T11:24:50.192Z,22.86
2018-06-14T11:25:50.180Z,22.71
2018-06-14T11:26:50.155Z,22.78
2018-06-14T11:27:50.144Z,22.99
2018-06-14T11:28:50.121Z,23.18
2018-06-14T11:29:50.086Z,23.15
2018-06-14T11:30:50.064Z,23.10
2018-06-14T11:31:50.053Z,23.48
2018-06-14T11:32:50.026Z,23.55
2018-06-14T11:33:50.006Z,23.62
2018-06-14T11:34:49.984Z,23.66
2018-06-14T11:35:49.963Z,23.82
2018-06-14T11:36:49.946Z,23.89
2018-06-14T11:37:49.925Z,23.71
2018-06-14T11:38:49.902Z,23.66
2018-06-14T11:39:49.884Z,23.70
2018-06-14T11:40:49.867Z,23.81
2018-06-14T11:41:49.837Z,23.84
2018-06-14T11:42:49.820Z,23.94
2018-06-14T11:43:49.805Z,24.02
2018-06-14T11:44:49.781Z,24.04
2018-06-14T11:45:49.765Z,24.02
2018-06-14T11:46:49.744Z,24.02
2018-06-14T11:47:49.721Z,23.99
2018-06-14T11:48:49.702Z,23.78
2018-06-14T11:49:49.673Z,23.72
2018-06-14T11:50:49.662Z,23.70
2018-06-14T11:51:49.648Z,23.85
2018-06-14T11:52:49.618Z,24.07
2018-06-14T11:53:49.596Z,24.19
2018-06-14T11:54:49.581Z,24.15
2018-06-14T11:55:49.563Z,24.21
2018-06-14T11:56:49.537Z,24.54
2018-06-14T11:57:49.524Z,24.36
2018-06-14T11:58:49.502Z,24.24
2018-06-14T11:59:49.483Z,24.32
2018-06-14T12:00:49.465Z,24.29
2018-06-14T12:01:49.496Z,24.03
2018-06-14T12:02:49.431Z,24.32
2018-06-14T12:03:49.408Z,24.02
2018-06-14T12:04:49.384Z,24.00
2018-06-14T12:05:49.363Z,23.87
2018-06-14T12:06:49.346Z,23.77
2018-06-14T12:07:49.327Z,23.84
2018-06-14T12:08:49.309Z,24.17
2018-06-14T12:09:49.279Z,24.09
2018-06-14T12:10:49.266Z,24.08
2018-06-14T12:11:49.249Z,24.03
2018-06-14T12:12:49.227Z,24.18
2018-06-14T12:13:49.208Z,24.07
2018-06-14T12:14:49.190Z,24.03
2018-06-14T12:15:49.164Z,24.03
2018-06-14T12:16:49.150Z,24.19
2018-06-14T12:17:49.126Z,24.37
2018-06-14T12:18:49.112Z,24.29
2018-06-14T12:19:49.084Z,24.39
2018-06-14T12:20:49.073Z,24.37
2018-06-14T12:21:49.051Z,24.12
2018-06-14T12:22:49.030Z,23.99
2018-06-14T12:23:49.014Z,23.96
2018-06-14T12:24:48.989Z,24.03
2018-06-14T12:25:48.974Z,24.14
2018-06-14T12:26:48.947Z,23.97
2018-06-14T12:27:48.935Z,24.17
2018-06-14T12:28:48.914Z,24.07
2018-06-14T12:29:48.897Z,24.09
2018-06-14T12:30:48.903Z,24.02
2018-06-14T12:31:48.856Z,24.07
2018-06-14T12:32:48.843Z,24.02
2018-06-14T12:33:48.814Z,23.87
2018-06-14T12:34:48.791Z,23.82
2018-06-14T12:35:48.779Z,23.70
2018-06-14T12:36:48.750Z,23.75
2018-06-14T12:37:48.736Z,23.97
2018-06-14T12:38:48.713Z,24.30
2018-06-14T12:39:48.689Z,24.42
2018-06-14T12:40:48.675Z,24.29
2018-06-14T12:41:48.658Z,24.67
2018-06-14T12:42:48.633Z,24.71
2018-06-14T12:43:48.616Z,24.52
2018-06-14T12:44:48.594Z,24.63
2018-06-14T12:45:48.578Z,24.56
2018-06-14T12:46:48.559Z,24.45
2018-06-14T12:47:48.538Z,24.56
2018-06-14T12:48:48.530Z,24.54
2018-06-14T12:49:48.495Z,24.33
2018-06-14T12:50:48.484Z,24.32
2018-06-14T12:51:48.455Z,24.27